Terminal Aerodrome Forecast
Issued by NWS

Current Version | Previous Version | Graphics & Text | Print | Product List | Glossary On
Versions: 1 2 3 4 5 6 7 8 9 10 11 12 13 14 15 16 17 18 19 20 21
000
FTUS41 KPBZ 270400 AAA
TAFMGW
TAF AMD
KMGW 270435Z 2705/2724 21005KT 4SM -SHRA BKN035 OVC060
      TEMPO 2705/2707 2SM SHRA OVC020
     FM270900 20005KT 5SM -SHRA VCTS OVC030CB
     FM271200 23005KT P6SM VCSH BKN035
     FM271700 23008KT 6SM -SHRA VCTS OVC035CB=

USA.gov is the U.S. government's official web portal to all federal, state and local government web resources and services.